Oriental Freesia — ZGCD7 — position and weather

sailwx.info

Track history (hours):
 
Tides and Currents Weather Stations Pressure Air Temp Water Temp Dewpoint Dewpoint Depression Visibility Wind Speed Wind Dir Waves Ship Positions

Oriental Freesia

Last reported at 2016-May-25 21:33 UTC. Time now 2016-May-25 22:42 UTC.
Position N 51°31' E 002°18'.

Length 134 m; draft 5.4 m.

Type: Ship (hazmat cat A). MMSI: 319349000.

Date/timePositionNaut miles runAvg speedWind from/ knotsBaromVisibWave heightAir tempDewpointWater temp
2016-May-25 21:33N 51°31' E 002°18'1010.1
2016-May-25 20:33N 51°22' E 002°11'1010.4
2016-May-25 19:33N 51°13' E 002°02'1110.8
2016-May-25 18:33N 51°07' E 001°48'1111.3
2016-May-25 17:33N 51°00' E 001°34'5911.0
2016-May-25 12:14N 50°23' E 000°22'912.7
2016-May-25 11:33N 50°21' E 000°09'1413.6
2016-May-25 10:33N 50°17' W 000°12'11710.6
2016-May-24 23:28N 49°44' W 003°07'1011.4
2016-May-24 22:33N 49°39' W 003°20'8512.2
2016-May-24 15:33N 48°56' W 005°14'1211.6
2016-May-24 14:33N 48°51' W 005°29'1111.2
2016-May-24 13:33N 48°43' W 005°41'  
2016-May-22 09:21N 39°05' W 009°57'911.3
2016-May-22 08:31N 38°55' W 009°57'1111.1
2016-May-22 07:31N 38°44' W 009°57'1111.3
2016-May-22 06:33N 38°33' W 009°54'1111.2
2016-May-22 05:32N 38°22' W 009°51'2311.8
2016-May-22 03:33N 37°59' W 009°44'23210.6
2016-May-21 05:33N 35°58' W 005°36'1111.0
2016-May-21 04:33N 36°01' W 005°23'23012.7
2016-May-20 10:21N 37°03' W 000°47'1713.1
2016-May-20 09:05N 37°11' W 000°29'712.7
2016-May-20 08:33N 37°14' W 000°22'1312.6
2016-May-20 07:33N 37°25' W 000°13'1312.5
2016-May-20 06:33N 37°36' W 000°06'4412.6
2016-May-20 03:03N 38°15' E 000°22'9713.0
2016-May-19 19:33N 39°45' E 001°09'1212.2
2016-May-19 18:33N 39°53' E 001°21'1312.9
2016-May-19 17:33N 40°00' E 001°35'1313.2
2016-May-19 16:33N 40°08' E 001°49'1313.0
2016-May-19 15:33N 40°16' E 002°02'6412.7
2016-May-19 10:33N 40°60' E 003°03'14413.0
2016-May-18 23:28N 42°57' E 004°56'1412.9
2016-May-18 22:24N 43°08' E 005°07'1012.2
2016-May-18 21:33N 43°18' E 005°12'6 0.6
2016-May-18 11:32N 43°21' E 005°19'7 6.7
2016-May-18 10:33N 43°17' E 005°12'5811.6
2016-May-18 05:34N 42°22' E 005°37'26512.0
2016-May-17 07:29N 38°34' E 008°35'16912.0
2016-May-16 17:22N 37°13' E 011°43'10612.1
2016-May-16 08:33N 36°39' E 013°49'1211.8
2016-May-16 07:33N 36°35' E 014°03'1211.9
2016-May-16 06:33N 36°32' E 014°17'1212.0
2016-May-16 05:33N 36°28' E 014°31'6811.1
2016-May-15 23:23N 36°56' E 015°50'  
Track history (hours):
 
Tides and Currents Weather Stations Pressure Air Temp Water Temp Dewpoint Dewpoint Depression Visibility Wind Speed Wind Dir Waves Ship Positions

Oriental Freesia

Last reported at 2016-May-25 21:33 UTC. Time now 2016-May-25 22:42 UTC.
Position N 51°31' E 002°18'.

Length 134 m; draft 5.4 m.

Type: Ship (hazmat cat A). MMSI: 319349000.

Date/timePositionNaut miles runAvg speedWind from/ knotsBaromVisibWave heightAir tempDewpointWater temp
2016-May-25 21:33N 51°31' E 002°18'1010.1
2016-May-25 20:33N 51°22' E 002°11'1010.4
2016-May-25 19:33N 51°13' E 002°02'1110.8
2016-May-25 18:33N 51°07' E 001°48'1111.3
2016-May-25 17:33N 51°00' E 001°34'5911.0
2016-May-25 12:14N 50°23' E 000°22'912.7
2016-May-25 11:33N 50°21' E 000°09'1413.6
2016-May-25 10:33N 50°17' W 000°12'11710.6
2016-May-24 23:28N 49°44' W 003°07'1011.4
2016-May-24 22:33N 49°39' W 003°20'8512.2
2016-May-24 15:33N 48°56' W 005°14'1211.6
2016-May-24 14:33N 48°51' W 005°29'1111.2
2016-May-24 13:33N 48°43' W 005°41'  
2016-May-22 09:21N 39°05' W 009°57'911.3
2016-May-22 08:31N 38°55' W 009°57'1111.1
2016-May-22 07:31N 38°44' W 009°57'1111.3
2016-May-22 06:33N 38°33' W 009°54'1111.2
2016-May-22 05:32N 38°22' W 009°51'2311.8
2016-May-22 03:33N 37°59' W 009°44'23210.6
2016-May-21 05:33N 35°58' W 005°36'1111.0
2016-May-21 04:33N 36°01' W 005°23'23012.7
2016-May-20 10:21N 37°03' W 000°47'1713.1
2016-May-20 09:05N 37°11' W 000°29'712.7
2016-May-20 08:33N 37°14' W 000°22'1312.6
2016-May-20 07:33N 37°25' W 000°13'1312.5
2016-May-20 06:33N 37°36' W 000°06'4412.6
2016-May-20 03:03N 38°15' E 000°22'9713.0
2016-May-19 19:33N 39°45' E 001°09'1212.2
2016-May-19 18:33N 39°53' E 001°21'1312.9
2016-May-19 17:33N 40°00' E 001°35'1313.2
2016-May-19 16:33N 40°08' E 001°49'1313.0
2016-May-19 15:33N 40°16' E 002°02'6412.7
2016-May-19 10:33N 40°60' E 003°03'14413.0
2016-May-18 23:28N 42°57' E 004°56'1412.9
2016-May-18 22:24N 43°08' E 005°07'1012.2
2016-May-18 21:33N 43°18' E 005°12'6 0.6
2016-May-18 11:32N 43°21' E 005°19'7 6.7
2016-May-18 10:33N 43°17' E 005°12'5811.6
2016-May-18 05:34N 42°22' E 005°37'26512.0
2016-May-17 07:29N 38°34' E 008°35'16912.0
2016-May-16 17:22N 37°13' E 011°43'10612.1
2016-May-16 08:33N 36°39' E 013°49'1211.8
2016-May-16 07:33N 36°35' E 014°03'1211.9
2016-May-16 06:33N 36°32' E 014°17'1212.0
2016-May-16 05:33N 36°28' E 014°31'6811.1
2016-May-15 23:23N 36°56' E 015°50'  

Dump ship's entire track history